createdAt,value
2022-08-03T00:00:44.736Z,4.22
2022-08-03T00:03:29.999Z,3.70
2022-08-03T00:06:15.074Z,4.22
2022-08-03T00:09:00.129Z,3.50
2022-08-03T00:11:45.164Z,3.83
2022-08-03T00:14:30.303Z,3.85
2022-08-03T00:17:15.173Z,3.60
2022-08-03T00:20:00.391Z,3.80
2022-08-03T00:22:45.192Z,3.60
2022-08-03T00:25:30.632Z,3.85
2022-08-03T00:28:15.605Z,4.13
2022-08-03T00:31:00.497Z,3.85
2022-08-03T00:33:58.761Z,3.58
2022-08-03T00:36:45.162Z,3.88
2022-08-03T00:39:30.063Z,3.50
2022-08-03T00:42:15.541Z,4.00
2022-08-03T00:45:00.668Z,3.55
2022-08-03T00:47:45.622Z,3.58
2022-08-03T00:50:34.045Z,3.60
2022-08-03T00:53:19.210Z,3.80
2022-08-03T00:56:04.450Z,3.47
2022-08-03T00:58:50.234Z,3.47
2022-08-03T01:01:35.067Z,3.58
2022-08-03T01:04:19.833Z,3.50
2022-08-03T01:07:25.185Z,3.75
2022-08-03T01:10:10.208Z,3.30
2022-08-03T01:13:07.508Z,3.30
2022-08-03T01:16:22.655Z,3.40
2022-08-03T01:19:39.800Z,3.38
2022-08-03T01:23:01.760Z,3.40
2022-08-03T01:26:03.665Z,3.88
2022-08-03T01:29:04.117Z,3.30
2022-08-03T01:32:58.899Z,3.58
2022-08-03T01:35:12.126Z,3.58
2022-08-03T01:38:09.450Z,3.70
2022-08-03T01:40:56.128Z,3.80
2022-08-03T01:43:55.388Z,3.70
2022-08-03T01:46:50.911Z,3.38
2022-08-03T01:49:40.105Z,3.13
2022-08-03T01:52:26.301Z,3.70
2022-08-03T01:55:13.077Z,3.97
2022-08-03T01:58:05.920Z,4.00
2022-08-03T02:00:57.437Z,3.90
2022-08-03T02:03:59.526Z,3.70
2022-08-03T02:07:02.856Z,4.22
2022-08-03T02:09:50.959Z,3.85
2022-08-03T02:12:37.875Z,4.20
2022-08-03T02:15:23.817Z,4.00
2022-08-03T02:18:10.966Z,4.10
2022-08-03T02:20:55.801Z,4.13
2022-08-03T02:23:40.936Z,3.92
2022-08-03T02:26:28.932Z,3.75
2022-08-03T02:29:19.641Z,4.10
2022-08-03T02:32:06.056Z,4.43
2022-08-03T02:34:55.288Z,4.32
2022-08-03T02:37:49.779Z,4.05
2022-08-03T02:40:36.179Z,4.25
2022-08-03T02:43:23.634Z,4.07
2022-08-03T02:46:10.339Z,4.43
2022-08-03T02:48:56.189Z,3.97
2022-08-03T02:51:43.150Z,4.07
2022-08-03T02:54:30.097Z,4.10
2022-08-03T02:57:16.661Z,4.43
2022-08-03T03:00:02.349Z,4.25
2022-08-03T03:02:48.284Z,4.20
2022-08-03T03:05:55.200Z,4.50
2022-08-03T03:08:41.405Z,4.20
2022-08-03T03:11:27.873Z,4.13
2022-08-03T03:14:14.117Z,4.15
2022-08-03T03:17:01.149Z,3.58
2022-08-03T03:19:49.033Z,4.30
2022-08-03T03:22:34.846Z,4.30
2022-08-03T03:25:21.174Z,4.20
2022-08-03T03:28:07.406Z,4.10
2022-08-03T03:30:52.666Z,4.15
2022-08-03T03:33:39.001Z,4.18
2022-08-03T03:36:23.670Z,4.18
2022-08-03T03:39:15.949Z,4.00
2022-08-03T03:42:02.045Z,4.15
2022-08-03T03:44:47.284Z,4.13
2022-08-03T03:47:33.810Z,4.38
2022-08-03T03:50:20.009Z,4.20
2022-08-03T03:53:04.948Z,4.25
2022-08-03T03:55:59.221Z,4.38
2022-08-03T03:58:48.159Z,4.15
2022-08-03T04:01:33.096Z,4.38
2022-08-03T04:04:36.511Z,3.90
2022-08-03T04:07:42.355Z,3.97
2022-08-03T04:10:49.616Z,4.32
2022-08-03T04:13:41.935Z,4.38
2022-08-03T04:16:31.796Z,4.03
2022-08-03T04:19:30.394Z,4.18
2022-08-03T04:22:19.078Z,4.05
2022-08-03T04:25:08.488Z,4.47
2022-08-03T04:28:30.062Z,4.15
2022-08-03T04:33:52.389Z,4.22
2022-08-03T04:36:44.572Z,4.07
2022-08-03T04:39:31.143Z,5.25
2022-08-03T04:42:20.246Z,6.25
2022-08-03T04:45:06.379Z,3.88
2022-08-03T04:47:52.039Z,4.10
2022-08-03T04:50:37.209Z,4.03
2022-08-03T04:53:22.067Z,3.95
2022-08-03T04:56:08.206Z,3.90
2022-08-03T04:58:53.251Z,3.83
2022-08-03T05:01:40.687Z,4.10
2022-08-03T05:04:25.875Z,4.28
2022-08-03T05:07:11.580Z,3.80
2022-08-03T05:10:01.775Z,3.85
2022-08-03T05:12:50.952Z,3.45
2022-08-03T05:15:35.826Z,4.03
2022-08-03T05:18:28.202Z,4.07
2022-08-03T05:21:16.316Z,3.92
2022-08-03T05:24:01.331Z,4.18
2022-08-03T05:26:46.159Z,3.92
2022-08-03T05:29:31.677Z,3.90
2022-08-03T05:32:17.361Z,3.40
2022-08-03T05:35:57.475Z,3.70
2022-08-03T05:38:07.116Z,3.83
2022-08-03T05:40:57.332Z,3.72
2022-08-03T05:43:59.646Z,3.70
2022-08-03T05:46:44.424Z,3.95
2022-08-03T05:49:29.627Z,3.67
2022-08-03T05:52:17.543Z,4.10
2022-08-03T05:55:05.910Z,3.67
2022-08-03T05:57:50.557Z,3.67
2022-08-03T06:00:35.453Z,3.72
2022-08-03T06:03:20.415Z,3.70
2022-08-03T06:06:07.253Z,3.85
2022-08-03T06:08:52.466Z,3.95
2022-08-03T06:11:37.404Z,3.42
2022-08-03T06:14:22.351Z,3.70
2022-08-03T06:17:07.565Z,3.85
2022-08-03T06:19:53.307Z,3.97
2022-08-03T06:22:41.772Z,3.85
2022-08-03T06:25:36.031Z,4.00
2022-08-03T06:28:52.192Z,4.25
2022-08-03T06:31:33.158Z,4.25
2022-08-03T06:34:33.361Z,4.00
2022-08-03T06:37:20.220Z,3.97
2022-08-03T06:40:05.725Z,4.40
2022-08-03T06:42:50.610Z,3.80
2022-08-03T06:45:35.441Z,3.88
2022-08-03T06:48:20.450Z,3.95
2022-08-03T06:51:05.483Z,3.72
2022-08-03T06:53:51.543Z,3.55
2022-08-03T06:56:36.667Z,3.80
2022-08-03T07:00:06.059Z,3.75
2022-08-03T07:02:28.503Z,3.80
2022-08-03T07:05:13.889Z,3.63
2022-08-03T07:08:01.203Z,3.63
2022-08-03T07:10:45.920Z,3.60
2022-08-03T07:13:30.729Z,4.07
2022-08-03T07:16:16.160Z,3.90
2022-08-03T07:19:00.674Z,3.80
2022-08-03T07:21:46.586Z,3.35
2022-08-03T07:24:31.603Z,3.53
2022-08-03T07:27:16.591Z,3.65
2022-08-03T07:30:02.027Z,4.05
2022-08-03T07:32:50.682Z,3.70
2022-08-03T07:35:35.623Z,4.03
2022-08-03T07:38:21.207Z,3.67
2022-08-03T07:41:06.090Z,4.00
2022-08-03T07:43:51.540Z,4.10
2022-08-03T07:46:36.270Z,4.63
2022-08-03T07:49:21.139Z,5.60
2022-08-03T07:52:24.590Z,4.40
2022-08-03T07:55:13.870Z,4.28
2022-08-03T07:58:07.091Z,4.15
2022-08-03T08:00:52.388Z,4.90
2022-08-03T08:03:52.899Z,4.60
2022-08-03T08:06:38.409Z,4.45
2022-08-03T08:09:24.958Z,4.55
2022-08-03T08:12:15.353Z,4.90
2022-08-03T08:15:01.434Z,5.30
2022-08-03T08:17:46.380Z,5.35
2022-08-03T08:20:38.324Z,4.47
2022-08-03T08:23:37.923Z,4.88
2022-08-03T08:26:28.172Z,4.80
2022-08-03T08:29:12.952Z,4.60
2022-08-03T08:31:58.015Z,6.13
2022-08-03T08:34:43.052Z,5.70
2022-08-03T08:37:28.151Z,5.78
2022-08-03T08:40:13.320Z,4.28
2022-08-03T08:42:59.170Z,6.07
2022-08-03T08:45:44.966Z,4.30
2022-08-03T08:48:30.547Z,4.22
2022-08-03T08:51:18.739Z,3.85
2022-08-03T08:54:06.900Z,4.03
2022-08-03T08:56:53.104Z,4.13
2022-08-03T08:59:47.915Z,3.45
2022-08-03T09:02:34.473Z,4.00
2022-08-03T09:05:27.818Z,4.10
2022-08-03T09:08:25.471Z,3.65
2022-08-03T09:11:12.085Z,3.88
2022-08-03T09:13:58.224Z,3.58
2022-08-03T09:17:00.430Z,3.90
2022-08-03T09:20:05.782Z,3.58
2022-08-03T09:23:00.892Z,3.83
2022-08-03T09:25:45.940Z,3.90
2022-08-03T09:29:01.318Z,3.90
2022-08-03T09:31:46.276Z,3.88
2022-08-03T09:34:32.249Z,4.10
2022-08-03T09:37:19.252Z,4.10
2022-08-03T09:40:06.228Z,4.18
2022-08-03T09:42:57.334Z,3.50
2022-08-03T09:45:43.745Z,3.65
2022-08-03T09:48:30.945Z,4.00
2022-08-03T09:51:32.602Z,3.58
2022-08-03T09:54:29.744Z,3.53
2022-08-03T09:57:25.921Z,3.63
2022-08-03T10:00:13.192Z,3.60
2022-08-03T10:03:05.141Z,3.70
2022-08-03T10:05:50.276Z,3.67
2022-08-03T10:08:35.450Z,3.35
2022-08-03T10:11:40.408Z,3.60
2022-08-03T10:14:31.125Z,3.55
2022-08-03T10:17:16.492Z,3.47
2022-08-03T10:20:03.100Z,3.70
2022-08-03T10:22:48.267Z,3.40
2022-08-03T10:25:35.077Z,3.65
2022-08-03T10:28:21.181Z,3.28
2022-08-03T10:31:07.492Z,3.60
2022-08-03T10:33:57.491Z,3.10
2022-08-03T10:36:44.435Z,3.10
2022-08-03T10:39:30.390Z,2.70
2022-08-03T10:42:15.405Z,3.13
2022-08-03T10:45:09.108Z,3.05
2022-08-03T10:47:55.598Z,3.13
2022-08-03T10:50:42.744Z,3.50
2022-08-03T10:53:54.686Z,3.08
2022-08-03T10:57:03.399Z,3.33
2022-08-03T10:59:59.878Z,3.20
2022-08-03T11:03:05.674Z,3.58
2022-08-03T11:05:52.946Z,3.65
2022-08-03T11:08:37.832Z,3.60
2022-08-03T11:11:27.835Z,3.40
2022-08-03T11:14:20.854Z,3.08
2022-08-03T11:17:07.853Z,3.20
2022-08-03T11:19:59.432Z,3.20
2022-08-03T11:22:50.205Z,2.83
2022-08-03T11:26:14.605Z,2.92
2022-08-03T11:29:38.329Z,2.83
2022-08-03T11:32:46.857Z,2.95
2022-08-03T11:35:44.816Z,3.80
2022-08-03T11:38:30.004Z,3.22
2022-08-03T11:41:32.960Z,2.75
2022-08-03T11:44:40.381Z,2.83
2022-08-03T11:47:29.503Z,3.70
2022-08-03T11:50:14.246Z,3.30
2022-08-03T11:52:59.109Z,3.28
2022-08-03T11:55:49.152Z,3.08
2022-08-03T11:59:01.932Z,3.28
2022-08-03T12:01:39.785Z,3.60
2022-08-03T12:04:24.635Z,3.70
2022-08-03T12:07:10.013Z,3.90
2022-08-03T12:10:11.861Z,3.15
2022-08-03T12:12:58.662Z,3.10
2022-08-03T12:15:49.571Z,2.97
2022-08-03T12:18:34.919Z,3.38
2022-08-03T12:21:23.727Z,3.10
2022-08-03T12:24:08.909Z,3.17
2022-08-03T12:26:58.372Z,3.03
2022-08-03T12:29:58.582Z,3.35
2022-08-03T12:32:44.376Z,3.15
2022-08-03T12:35:29.220Z,3.10
2022-08-03T12:38:20.191Z,2.90
2022-08-03T12:41:13.102Z,3.33
2022-08-03T12:43:58.514Z,3.58
2022-08-03T12:46:47.719Z,3.58
2022-08-03T12:49:47.200Z,3.72
2022-08-03T12:52:42.665Z,3.28
2022-08-03T12:55:33.065Z,3.70
2022-08-03T12:58:38.324Z,3.30
2022-08-03T13:01:23.877Z,3.28
2022-08-03T13:04:14.343Z,3.35
2022-08-03T13:07:04.389Z,3.35
2022-08-03T13:09:54.373Z,3.00
2022-08-03T13:12:47.753Z,3.53
2022-08-03T13:15:38.551Z,3.50
2022-08-03T13:18:32.796Z,3.22
2022-08-03T13:21:20.332Z,3.25
2022-08-03T13:24:05.333Z,3.25
2022-08-03T13:26:50.929Z,3.20
2022-08-03T13:29:35.720Z,3.30
2022-08-03T13:32:21.898Z,3.55
2022-08-03T13:35:08.741Z,3.00
2022-08-03T13:37:53.693Z,3.50
2022-08-03T13:40:41.710Z,3.50
2022-08-03T13:43:26.662Z,3.40
2022-08-03T13:46:11.527Z,3.60
2022-08-03T13:48:56.604Z,3.40
2022-08-03T13:51:41.519Z,4.05
2022-08-03T13:54:26.722Z,3.80
2022-08-03T13:58:05.235Z,4.20
2022-08-03T14:00:27.164Z,3.10
2022-08-03T14:03:14.473Z,3.58
2022-08-03T14:05:59.464Z,3.30
2022-08-03T14:08:44.563Z,3.70
2022-08-03T14:12:07.132Z,3.15
2022-08-03T14:14:34.498Z,3.58
2022-08-03T14:17:20.065Z,3.60
2022-08-03T14:20:09.485Z,3.50
2022-08-03T14:23:14.530Z,3.33
2022-08-03T14:25:59.814Z,3.40
2022-08-03T14:28:44.815Z,3.55
2022-08-03T14:32:10.088Z,3.15
2022-08-03T14:34:34.918Z,3.13
2022-08-03T14:37:20.150Z,3.42
2022-08-03T14:40:05.856Z,3.42
2022-08-03T14:42:51.522Z,3.83
2022-08-03T14:45:35.985Z,3.75
2022-08-03T14:50:31.075Z,3.90
2022-08-03T14:51:26.770Z,3.67
2022-08-03T14:54:16.816Z,4.13
2022-08-03T14:57:03.518Z,3.60
2022-08-03T14:59:56.635Z,3.70
2022-08-03T15:02:42.561Z,4.07
2022-08-03T15:05:27.894Z,3.70
2022-08-03T15:08:12.648Z,4.40
2022-08-03T15:10:57.781Z,4.13
2022-08-03T15:13:42.534Z,3.90
2022-08-03T15:16:30.578Z,3.97
2022-08-03T15:20:01.594Z,4.15
2022-08-03T15:22:24.863Z,4.05
2022-08-03T15:26:28.425Z,4.20
2022-08-03T15:28:15.631Z,4.00
2022-08-03T15:31:01.176Z,3.75
2022-08-03T15:33:46.261Z,3.35
2022-08-03T15:36:32.318Z,4.00
2022-08-03T15:39:17.410Z,3.15
2022-08-03T15:42:02.015Z,3.22
2022-08-03T15:44:47.616Z,3.42
2022-08-03T15:47:32.830Z,3.80
2022-08-03T15:50:17.668Z,3.90
2022-08-03T15:53:03.716Z,3.17
2022-08-03T15:55:48.671Z,3.55
2022-08-03T15:59:03.266Z,3.22
2022-08-03T16:01:39.508Z,3.30
2022-08-03T16:04:25.276Z,3.45
2022-08-03T16:07:12.715Z,3.45
2022-08-03T16:09:57.480Z,3.67
2022-08-03T16:12:42.693Z,3.47
2022-08-03T16:15:27.773Z,3.60
2022-08-03T16:18:12.802Z,3.67
2022-08-03T16:20:58.311Z,3.70
2022-08-03T16:23:45.048Z,3.72
2022-08-03T16:26:32.744Z,4.30
2022-08-03T16:29:22.445Z,3.90
2022-08-03T16:32:09.543Z,4.25
2022-08-03T16:34:54.266Z,3.90
2022-08-03T16:37:39.791Z,4.00
2022-08-03T16:40:25.907Z,3.95
2022-08-03T16:43:18.609Z,4.25
2022-08-03T16:46:04.165Z,4.15
2022-08-03T16:48:49.143Z,4.10
2022-08-03T16:51:50.602Z,4.35
2022-08-03T16:54:35.940Z,4.20
2022-08-03T16:57:56.407Z,4.55
2022-08-03T17:00:34.058Z,4.32
2022-08-03T17:03:26.803Z,4.20
2022-08-03T17:06:12.715Z,4.43
2022-08-03T17:08:58.748Z,4.20
2022-08-03T17:11:47.216Z,4.70
2022-08-03T17:14:32.496Z,4.32
2022-08-03T17:17:30.546Z,4.75
2022-08-03T17:20:33.348Z,4.35
2022-08-03T17:23:55.292Z,4.13
2022-08-03T17:26:43.473Z,4.60
2022-08-03T17:29:34.388Z,4.40
2022-08-03T17:32:21.775Z,4.45
2022-08-03T17:35:07.822Z,4.55
2022-08-03T17:37:57.846Z,4.85
2022-08-03T17:40:49.942Z,4.70
2022-08-03T17:44:13.510Z,3.97
2022-08-03T17:46:41.588Z,4.95
2022-08-03T17:49:28.076Z,4.75
2022-08-03T17:52:35.888Z,4.10
2022-08-03T17:55:56.319Z,4.60
2022-08-03T17:58:57.882Z,4.63
2022-08-03T18:02:14.459Z,4.78
2022-08-03T18:05:16.569Z,4.75
2022-08-03T18:08:05.860Z,4.90
2022-08-03T18:11:15.771Z,5.50
2022-08-03T18:14:16.363Z,5.18
2022-08-03T18:17:05.996Z,5.35
2022-08-03T18:20:02.660Z,5.13
2022-08-03T18:22:50.452Z,4.93
2022-08-03T18:25:50.045Z,5.22
2022-08-03T18:31:59.753Z,4.28
2022-08-03T18:34:32.513Z,4.80
2022-08-03T18:37:25.145Z,3.92
2022-08-03T18:40:10.818Z,4.80
2022-08-03T18:42:55.645Z,4.53
2022-08-03T18:45:57.401Z,4.20
2022-08-03T18:51:43.237Z,4.10
2022-08-03T18:55:19.876Z,4.07
2022-08-03T18:58:15.695Z,4.28
2022-08-03T19:04:45.936Z,4.20
2022-08-03T19:07:36.110Z,4.60
2022-08-03T19:10:25.736Z,4.03
2022-08-03T19:13:30.952Z,3.83
2022-08-03T19:16:30.182Z,4.40
2022-08-03T19:19:17.922Z,4.00
2022-08-03T19:22:05.705Z,4.55
2022-08-03T19:24:57.282Z,4.20
2022-08-03T19:27:48.130Z,4.70
2022-08-03T19:30:39.554Z,4.25
2022-08-03T19:33:29.838Z,4.18
2022-08-03T19:36:15.334Z,4.07
2022-08-03T19:39:02.549Z,4.07
2022-08-03T19:41:51.476Z,3.90
2022-08-03T19:44:42.380Z,3.65
2022-08-03T19:47:50.853Z,4.13
2022-08-03T19:50:36.298Z,3.92
2022-08-03T19:53:35.372Z,3.97
2022-08-03T19:56:23.516Z,3.72
2022-08-03T19:59:13.236Z,3.92
2022-08-03T20:01:58.872Z,4.40
2022-08-03T20:04:44.159Z,4.07
2022-08-03T20:07:32.178Z,3.95
2022-08-03T20:10:17.338Z,4.30
2022-08-03T20:13:03.334Z,4.35
2022-08-03T20:15:48.478Z,4.20
2022-08-03T20:18:39.502Z,4.13
2022-08-03T20:21:26.720Z,4.40
2022-08-03T20:24:27.476Z,4.80
2022-08-03T20:27:19.867Z,4.43
2022-08-03T20:30:07.362Z,4.53
2022-08-03T20:32:52.591Z,4.45
2022-08-03T20:35:37.700Z,4.43
2022-08-03T20:38:27.278Z,3.90
2022-08-03T20:41:12.333Z,4.70
2022-08-03T20:43:56.984Z,5.00
2022-08-03T20:46:56.341Z,4.55
2022-08-03T20:49:46.388Z,4.85
2022-08-03T20:52:32.654Z,4.88
2022-08-03T20:55:20.152Z,5.15
2022-08-03T20:58:06.291Z,4.43
2022-08-03T21:00:51.590Z,5.25
2022-08-03T21:03:40.791Z,5.22
2022-08-03T21:06:53.667Z,5.10
2022-08-03T21:09:49.427Z,4.90
2022-08-03T21:13:10.710Z,4.38
2022-08-03T21:13:14.870Z,4.80
2022-08-03T21:16:13.000Z,5.32
2022-08-03T21:19:02.779Z,5.07
2022-08-03T21:21:49.612Z,4.90
2022-08-03T21:24:39.971Z,5.05
2022-08-03T21:27:25.826Z,5.10
2022-08-03T21:30:11.645Z,5.13
2022-08-03T21:32:57.701Z,5.20
2022-08-03T21:35:46.356Z,5.25
2022-08-03T21:38:32.136Z,4.57
2022-08-03T21:41:17.016Z,4.97
2022-08-03T21:44:02.755Z,4.97
2022-08-03T21:46:52.352Z,5.50
2022-08-03T21:49:51.720Z,5.95
2022-08-03T21:52:49.109Z,5.57
2022-08-03T21:55:42.363Z,5.40
2022-08-03T21:58:32.048Z,5.60
2022-08-03T22:01:21.330Z,5.28
2022-08-03T22:04:06.963Z,4.63
2022-08-03T22:06:52.253Z,5.70
2022-08-03T22:09:37.353Z,5.45
2022-08-03T22:12:24.166Z,5.40
2022-08-03T22:15:11.829Z,5.30
2022-08-03T22:17:58.502Z,5.78
2022-08-03T22:23:57.682Z,5.28
2022-08-03T22:27:02.555Z,5.70
2022-08-03T22:29:48.741Z,5.18
2022-08-03T22:32:33.551Z,5.40
2022-08-03T22:35:20.674Z,6.00
2022-08-03T22:38:07.824Z,5.32
2022-08-03T22:40:54.310Z,5.10
2022-08-03T22:43:40.372Z,5.72
2022-08-03T22:46:26.926Z,5.70
2022-08-03T22:49:12.937Z,5.35
2022-08-03T22:51:58.668Z,5.60
2022-08-03T22:54:45.782Z,5.53
2022-08-03T22:57:34.702Z,5.65
2022-08-03T23:00:19.246Z,5.72
2022-08-03T23:03:05.699Z,5.90
2022-08-03T23:06:00.278Z,5.50
2022-08-03T23:08:49.773Z,5.65
2022-08-03T23:11:45.270Z,5.35
2022-08-03T23:14:37.894Z,5.75
2022-08-03T23:17:23.745Z,5.30
2022-08-03T23:20:09.570Z,5.50
2022-08-03T23:22:56.911Z,6.13
2022-08-03T23:25:42.424Z,5.13
2022-08-03T23:28:30.523Z,6.15
2022-08-03T23:31:17.869Z,6.45
2022-08-03T23:34:21.699Z,5.80
2022-08-03T23:37:06.232Z,6.20
2022-08-03T23:39:52.210Z,6.35
2022-08-03T23:42:38.388Z,6.70
2022-08-03T23:45:27.001Z,6.57
2022-08-03T23:48:11.974Z,6.43
2022-08-03T23:50:59.513Z,6.22
2022-08-03T23:53:53.526Z,6.70
2022-08-03T23:56:47.114Z,6.22
2022-08-03T23:59:55.394Z,6.20
